Time;durP1;ratioP1;P1;durP2;ratioP2;P2;SDS_P1;SDS_P2;PMS_P1;PMS_P2;Temp;Humidity;BMP_temperature;BMP_pressure;BME280_temperature;BME280_humidity;BME280_pressure;Samples;Min_cycle;Max_cycle;Signal;HPM_P1;HPM_P2
2023/01/31 12:41:40;;;;;;;8.20;1.93;;;8.50;99.90;;;;;;4412742;23;20643;-73
2023/01/31 12:44:26;;;;;;;8.37;1.77;;;8.50;99.90;;;;;;4929619;29;20217;-72
2023/01/31 12:47:08;;;;;;;7.37;1.77;;;8.50;99.90;;;;;;4937537;29;20232;-72
2023/01/31 12:49:50;;;;;;;7.43;1.60;;;8.50;99.90;;;;;;4936998;29;20280;-72
2023/01/31 12:52:24;;;;;;;9.10;2.37;;;8.40;99.90;;;;;;4924369;29;20217;-71
2023/01/31 12:55:19;;;;;;;8.60;2.33;;;8.60;99.90;;;;;;4916896;29;20209;-70
2023/01/31 12:57:54;;;;;;;6.13;2.07;;;8.50;99.90;;;;;;4919543;29;20259;-70
2023/01/31 13:00:28;;;;;;;4.47;1.80;;;8.50;99.90;;;;;;4933990;29;20235;-70
2023/01/31 13:03:17;;;;;;;8.23;2.37;;;8.50;99.90;;;;;;4933704;29;20233;-72
2023/01/31 13:05:48;;;;;;;7.70;2.23;;;8.40;99.90;;;;;;4933720;29;20231;-72
2023/01/31 13:08:18;;;;;;;8.47;2.10;;;8.40;99.90;;;;;;4933751;29;20314;-72
2023/01/31 13:10:49;;;;;;;8.33;2.60;;;8.50;99.90;;;;;;4933441;29;20219;-73
2023/01/31 13:13:22;;;;;;;10.07;2.40;;;8.60;99.90;;;;;;4933393;29;20217;-72
2023/01/31 13:15:53;;;;;;;9.93;2.73;;;8.70;99.90;;;;;;4934741;29;20209;-72
2023/01/31 13:18:22;;;;;;;14.10;2.50;;;8.80;99.90;;;;;;4935723;29;20587;-70
2023/01/31 13:20:55;;;;;;;5.30;2.03;;;8.80;99.90;;;;;;4935890;29;20579;-71
2023/01/31 13:23:30;;;;;;;8.60;2.50;;;8.70;99.90;;;;;;4935834;29;20213;-71
2023/01/31 13:26:02;;;;;;;10.83;2.80;;;8.70;99.90;;;;;;4935806;29;20695;-70
2023/01/31 13:28:34;;;;;;;5.97;2.57;;;8.50;99.90;;;;;;4935123;29;20699;-70
2023/01/31 13:31:03;;;;;;;11.77;2.33;;;8.50;99.90;;;;;;4935930;29;20208;-71
2023/01/31 13:33:36;;;;;;;6.33;2.07;;;8.50;99.90;;;;;;4935577;29;20739;-72
2023/01/31 13:36:21;;;;;;;10.70;2.60;;;8.50;99.90;;;;;;4935390;29;20299;-71
2023/01/31 13:38:49;;;;;;;13.67;2.50;;;8.50;99.90;;;;;;4935385;29;20235;-72
2023/01/31 13:41:25;;;;;;;14.57;2.90;;;8.50;99.90;;;;;;4935222;29;20212;-71
2023/01/31 13:43:54;;;;;;;6.80;2.27;;;8.30;99.90;;;;;;4935488;29;20238;-72
2023/01/31 13:46:27;;;;;;;8.93;2.47;;;8.10;99.90;;;;;;4935218;29;20214;-71
2023/01/31 13:48:57;;;;;;;5.77;2.20;;;8.00;99.90;;;;;;4934517;29;20242;-71
2023/01/31 13:51:29;;;;;;;6.17;2.30;;;8.00;99.90;;;;;;4934979;29;20205;-72
2023/01/31 13:54:00;;;;;;;8.30;2.20;;;8.00;99.90;;;;;;4935262;29;20219;-72
2023/01/31 13:56:30;;;;;;;10.03;3.07;;;8.10;99.90;;;;;;4935457;29;20204;-72
2023/01/31 13:59:00;;;;;;;4.23;2.00;;;8.10;99.90;;;;;;4934991;29;20229;-71
2023/01/31 14:01:30;;;;;;;8.80;3.57;;;8.10;99.90;;;;;;4934230;29;20213;-73
2023/01/31 14:04:40;;;;;;;6.87;2.67;;;8.10;99.90;;;;;;4933066;29;20205;-73
2023/01/31 14:07:18;;;;;;;5.43;2.33;;;8.00;99.90;;;;;;4906179;29;20372;-72
2023/01/31 14:10:01;;;;;;;7.80;2.57;;;8.00;99.90;;;;;;4916054;29;20240;-73
2023/01/31 14:12:33;;;;;;;7.83;2.17;;;8.00;99.90;;;;;;4942398;29;20218;-73
2023/01/31 14:15:10;;;;;;;7.93;1.83;;;8.00;99.90;;;;;;4954085;29;20208;-73
2023/01/31 14:18:00;;;;;;;8.03;2.30;;;8.00;99.90;;;;;;4953437;28;20586;-74
2023/01/31 14:20:29;;;;;;;6.63;2.13;;;7.90;99.90;;;;;;4953638;28;20204;-74
2023/01/31 14:23:45;;;;;;;4.67;2.30;;;7.90;99.90;;;;;;4953600;29;20294;-74
2023/01/31 14:26:36;;;;;;;6.83;2.20;;;7.90;99.90;;;;;;4952617;29;20210;-73
2023/01/31 14:29:09;;;;;;;6.83;2.43;;;7.90;99.90;;;;;;4934276;29;20328;-74
2023/01/31 14:31:37;;;;;;;2.37;1.40;;;7.90;99.90;;;;;;4941223;29;20227;-71
2023/01/31 14:34:04;;;;;;;6.90;2.00;;;7.90;99.90;;;;;;4953901;29;20215;-73
2023/01/31 14:36:51;;;;;;;5.73;1.83;;;7.90;99.90;;;;;;4954003;29;20207;-71
2023/01/31 14:39:45;;;;;;;5.00;1.90;;;8.00;99.90;;;;;;4953288;28;20239;-70
2023/01/31 14:42:40;;;;;;;6.70;2.80;;;8.00;99.90;;;;;;4952711;29;20224;-72
2023/01/31 14:45:20;;;;;;;6.47;2.40;;;8.10;99.90;;;;;;4952803;29;20208;-71
2023/01/31 14:47:58;;;;;;;8.90;2.10;;;8.10;99.90;;;;;;4952703;28;20243;-71
2023/01/31 14:51:01;;;;;;;5.10;2.13;;;8.20;99.90;;;;;;4952440;29;20544;-71
2023/01/31 14:53:46;;;;;;;6.23;2.27;;;8.30;99.90;;;;;;4948908;29;20218;-72
2023/01/31 14:56:27;;;;;;;6.67;1.57;;;8.30;99.90;;;;;;4952993;29;20211;-71
2023/01/31 14:58:54;;;;;;;6.37;2.20;;;8.40;99.90;;;;;;4952507;28;20643;-71
2023/01/31 15:01:30;;;;;;;9.70;1.90;;;8.50;99.90;;;;;;4953235;29;20206;-71
2023/01/31 15:03:59;;;;;;;5.00;1.67;;;8.50;99.90;;;;;;4953282;29;20571;-72
2023/01/31 15:06:29;;;;;;;5.20;2.40;;;8.50;99.90;;;;;;4952173;29;20567;-72
2023/01/31 15:09:26;;;;;;;2.80;1.60;;;8.40;99.90;;;;;;4951976;28;20271;-75
2023/01/31 15:11:54;;;;;;;4.10;1.93;;;8.40;99.90;;;;;;4952277;28;20216;-72
2023/01/31 15:14:28;;;;;;;5.83;2.10;;;8.40;99.90;;;;;;4954807;28;20254;-73
2023/01/31 15:16:58;;;;;;;11.00;3.10;;;8.40;99.90;;;;;;4955923;28;20216;-71
2023/01/31 15:19:30;;;;;;;4.10;1.90;;;8.40;99.90;;;;;;4957441;28;20232;-73
2023/01/31 15:22:03;;;;;;;4.60;2.23;;;8.50;99.90;;;;;;4955526;29;20236;-73
2023/01/31 15:24:33;;;;;;;5.20;2.10;;;8.50;99.90;;;;;;4955771;29;20211;-71
2023/01/31 15:27:01;;;;;;;5.43;1.90;;;8.50;99.90;;;;;;4955968;29;20255;-71
2023/01/31 15:29:34;;;;;;;5.53;2.07;;;8.50;99.90;;;;;;4955606;28;20331;-71
2023/01/31 15:32:08;;;;;;;9.00;1.93;;;8.60;99.90;;;;;;4955834;29;20234;-72
2023/01/31 15:34:51;;;;;;;5.40;2.30;;;8.60;99.90;;;;;;4955869;29;20566;-71
2023/01/31 15:37:22;;;;;;;5.50;1.83;;;8.60;99.90;;;;;;4955791;29;20655;-71
2023/01/31 15:39:55;;;;;;;8.30;2.30;;;8.60;99.90;;;;;;4955785;29;20204;-71
2023/01/31 15:42:24;;;;;;;2.33;1.60;;;8.70;99.90;;;;;;4919231;29;1085524;-73
2023/01/31 15:44:51;;;;;;;10.07;2.77;;;8.70;99.90;;;;;;4957151;29;20304;-71
2023/01/31 15:47:22;;;;;;;5.20;2.20;;;8.70;99.90;;;;;;4956224;29;20635;-72
2023/01/31 15:49:50;;;;;;;11.17;1.93;;;8.70;99.90;;;;;;4933738;29;20209;-68
2023/01/31 15:52:19;;;;;;;3.10;1.50;;;8.80;99.90;;;;;;4937190;29;20300;-69
2023/01/31 15:54:55;;;;;;;6.37;1.90;;;8.80;99.90;;;;;;4937399;29;20228;-71
2023/01/31 15:57:24;;;;;;;4.70;1.57;;;8.80;99.90;;;;;;4937020;29;20240;-70
2023/01/31 15:59:52;;;;;;;2.60;2.00;;;8.80;99.90;;;;;;4955682;29;20305;-72
2023/01/31 16:02:25;;;;;;;2.43;1.70;;;8.70;99.90;;;;;;4956535;29;20222;-71
2023/01/31 16:04:53;;;;;;;5.03;1.83;;;8.70;99.90;;;;;;4956521;29;20212;-71
2023/01/31 16:07:27;;;;;;;5.40;1.67;;;8.70;99.90;;;;;;4953389;29;20212;-70
2023/01/31 16:09:56;;;;;;;4.13;1.73;;;8.70;99.90;;;;;;4956385;29;20212;-73
2023/01/31 16:12:23;;;;;;;5.17;1.53;;;8.70;99.90;;;;;;4944312;29;20554;-71
2023/01/31 16:14:53;;;;;;;3.80;1.70;;;8.70;99.90;;;;;;4938202;29;20209;-72
2023/01/31 16:17:21;;;;;;;4.70;1.97;;;8.80;99.90;;;;;;4937920;29;20213;-72
2023/01/31 16:19:49;;;;;;;3.63;1.60;;;8.80;99.90;;;;;;4938055;29;20209;-75
2023/01/31 16:22:26;;;;;;;2.23;1.50;;;8.90;99.90;;;;;;4937755;29;20212;-72
2023/01/31 16:24:54;;;;;;;7.13;1.70;;;8.90;99.90;;;;;;4936202;29;20220;-74
2023/01/31 16:27:22;;;;;;;2.63;1.37;;;8.80;99.90;;;;;;4936800;29;20212;-72
2023/01/31 16:29:51;;;;;;;6.40;1.30;;;8.80;99.90;;;;;;4947532;29;20233;-72
2023/01/31 16:32:22;;;;;;;4.97;2.47;;;8.70;99.90;;;;;;4948579;29;20235;-73
2023/01/31 16:34:54;;;;;;;3.60;1.50;;;8.70;99.90;;;;;;4946660;29;20209;-72
2023/01/31 16:37:34;;;;;;;5.90;1.80;;;8.50;99.90;;;;;;4917425;29;20218;-72
2023/01/31 16:40:04;;;;;;;2.83;1.47;;;8.40;99.90;;;;;;4917599;29;20221;-71
2023/01/31 16:42:34;;;;;;;7.63;2.10;;;8.40;99.90;;;;;;4930723;29;20583;-71
2023/01/31 16:45:01;;;;;;;9.07;1.60;;;8.40;99.90;;;;;;4936520;29;20236;-73
2023/01/31 16:47:46;;;;;;;5.23;1.63;;;8.40;99.90;;;;;;4935778;29;20652;-72
2023/01/31 16:50:34;;;;;;;3.67;1.60;;;8.40;99.90;;;;;;4917471;29;20684;-71
2023/01/31 16:53:16;;;;;;;3.50;1.50;;;8.40;99.90;;;;;;4928658;29;20213;-71
2023/01/31 16:55:43;;;;;;;6.77;1.60;;;8.40;99.90;;;;;;4936368;29;20223;-74
2023/01/31 16:58:12;;;;;;;6.37;1.73;;;8.40;99.90;;;;;;4940779;29;20568;-75
2023/01/31 17:00:40;;;;;;;3.27;1.50;;;8.40;99.90;;;;;;4954906;29;20215;-76
2023/01/31 17:03:17;;;;;;;8.10;1.90;;;8.30;99.90;;;;;;4955291;29;20208;-73
2023/01/31 17:05:46;;;;;;;3.67;1.73;;;8.30;99.90;;;;;;4955442;29;20267;-71
2023/01/31 17:08:17;;;;;;;6.50;1.80;;;8.40;99.90;;;;;;4955151;28;20282;-72
2023/01/31 17:10:47;;;;;;;2.57;1.70;;;8.40;99.90;;;;;;4955254;29;20212;-72
2023/01/31 17:13:19;;;;;;;5.40;2.10;;;8.40;99.90;;;;;;4954880;29;20295;-70
2023/01/31 17:15:47;;;;;;;6.03;1.60;;;8.40;99.90;;;;;;4936456;29;20213;-73
2023/01/31 17:18:14;;;;;;;5.53;1.50;;;8.40;99.90;;;;;;4941108;29;20725;-73
2023/01/31 17:20:43;;;;;;;3.90;1.60;;;8.40;99.90;;;;;;4955388;29;20235;-76
2023/01/31 17:23:11;;;;;;;3.33;1.40;;;8.40;99.90;;;;;;4955114;29;20208;-72
2023/01/31 17:25:39;;;;;;;8.47;1.70;;;8.30;99.90;;;;;;4954969;29;20219;-71
2023/01/31 17:28:07;;;;;;;3.37;1.57;;;8.30;99.90;;;;;;4954693;28;20232;-72
2023/01/31 17:30:35;;;;;;;5.63;2.17;;;8.30;99.90;;;;;;4955713;29;20307;-72
2023/01/31 17:33:02;;;;;;;3.57;1.70;;;8.30;99.90;;;;;;4954849;29;20240;-73
2023/01/31 17:35:34;;;;;;;5.77;1.67;;;8.30;99.90;;;;;;4932276;29;20232;-73
2023/01/31 17:38:01;;;;;;;3.83;1.73;;;8.30;99.90;;;;;;4923654;29;20722;-71
2023/01/31 17:40:28;;;;;;;5.63;2.17;;;8.30;99.90;;;;;;4951884;29;20208;-71
2023/01/31 17:42:58;;;;;;;4.77;1.63;;;8.20;99.90;;;;;;4935690;29;20550;-71
2023/01/31 17:45:26;;;;;;;8.00;1.87;;;8.20;99.90;;;;;;4935232;29;20299;-73
2023/01/31 17:47:53;;;;;;;3.93;1.97;;;8.30;99.90;;;;;;4939140;29;20228;-75
2023/01/31 17:50:21;;;;;;;6.90;2.47;;;8.20;99.90;;;;;;4956115;29;20671;-75
2023/01/31 17:52:48;;;;;;;5.63;1.77;;;8.20;99.90;;;;;;4956300;29;20272;-74
2023/01/31 17:55:17;;;;;;;4.67;1.70;;;8.30;99.90;;;;;;4955576;29;20208;-74
2023/01/31 17:57:44;;;;;;;5.50;1.77;;;8.20;99.90;;;;;;4954429;28;21042;-74
2023/01/31 18:00:19;;;;;;;2.73;1.90;;;8.20;99.90;;;;;;4955050;28;20571;-73
2023/01/31 18:02:45;;;;;;;7.30;1.77;;;8.10;99.90;;;;;;4954839;29;20218;-74
2023/01/31 18:05:15;;;;;;;3.60;1.80;;;8.10;99.90;;;;;;4954424;29;20204;-73
2023/01/31 18:07:42;;;;;;;3.20;1.67;;;8.20;99.90;;;;;;4954085;28;20255;-74
2023/01/31 18:10:10;;;;;;;6.67;1.73;;;8.30;99.90;;;;;;4954288;29;20241;-76
2023/01/31 18:12:37;;;;;;;4.47;1.87;;;8.30;99.90;;;;;;4954134;29;20675;-78
2023/01/31 18:15:04;;;;;;;6.50;1.53;;;8.40;99.90;;;;;;4954629;29;20318;-73
2023/01/31 18:17:32;;;;;;;4.33;1.63;;;8.40;99.90;;;;;;4954150;28;20566;-74
2023/01/31 18:19:59;;;;;;;3.37;1.70;;;8.40;99.90;;;;;;4953649;29;20212;-74
2023/01/31 18:22:26;;;;;;;4.13;1.60;;;8.50;99.90;;;;;;4953870;29;20233;-72
2023/01/31 18:24:53;;;;;;;5.33;1.70;;;8.50;99.90;;;;;;4954426;29;20212;-72
2023/01/31 18:27:19;;;;;;;3.00;1.60;;;8.50;99.90;;;;;;4949861;29;20214;-71
2023/01/31 18:29:46;;;;;;;3.63;1.77;;;8.60;99.90;;;;;;4933237;29;20233;-73
2023/01/31 18:32:13;;;;;;;4.20;1.43;;;8.60;99.90;;;;;;4946047;29;20214;-73
2023/01/31 18:34:41;;;;;;;5.60;2.00;;;8.60;99.90;;;;;;4953920;29;20218;-72
2023/01/31 18:37:15;;;;;;;4.53;2.07;;;8.60;99.90;;;;;;4955073;28;20212;-71
2023/01/31 18:39:42;;;;;;;3.03;1.90;;;8.70;99.90;;;;;;4955032;28;20572;-71
2023/01/31 18:42:09;;;;;;;4.57;2.10;;;8.70;99.90;;;;;;4968153;23;20227;-71
2023/01/31 18:44:35;;;;;;;5.10;1.80;;;8.80;99.90;;;;;;4955096;29;20203;-71
2023/01/31 18:47:02;;;;;;;5.10;1.97;;;8.80;99.90;;;;;;4954741;28;20207;-73
2023/01/31 18:49:29;;;;;;;5.03;1.90;;;8.80;99.90;;;;;;4954084;29;20239;-74
2023/01/31 18:51:58;;;;;;;8.67;2.00;;;8.80;99.90;;;;;;4955049;29;20207;-72
2023/01/31 18:54:25;;;;;;;5.07;1.90;;;8.80;99.90;;;;;;4955396;29;20208;-74
2023/01/31 18:56:52;;;;;;;4.80;1.83;;;8.90;99.90;;;;;;4953787;29;20228;-73
2023/01/31 18:59:18;;;;;;;6.50;2.10;;;8.90;99.90;;;;;;4954688;29;20246;-72
2023/01/31 19:01:45;;;;;;;7.13;2.00;;;8.90;99.90;;;;;;4954817;29;20208;-71
2023/01/31 19:04:12;;;;;;;5.43;2.20;;;8.90;99.90;;;;;;4955183;29;20891;-71
2023/01/31 19:06:40;;;;;;;5.37;2.00;;;8.70;99.90;;;;;;4955329;28;20216;-74
2023/01/31 19:09:10;;;;;;;7.73;2.70;;;8.70;99.90;;;;;;4954394;29;20699;-71
2023/01/31 19:11:36;;;;;;;6.10;2.07;;;8.70;99.90;;;;;;4954454;29;20215;-72
2023/01/31 19:14:05;;;;;;;4.03;2.00;;;8.80;99.90;;;;;;4954073;29;20204;-74
2023/01/31 19:16:35;;;;;;;5.13;2.00;;;8.80;99.90;;;;;;4939346;28;20672;-74
2023/01/31 19:19:01;;;;;;;4.70;2.30;;;8.70;99.90;;;;;;4935076;29;20573;-72
2023/01/31 19:21:30;;;;;;;6.73;2.00;;;8.70;99.90;;;;;;4936151;29;20205;-74
2023/01/31 19:23:58;;;;;;;6.07;2.00;;;8.60;99.90;;;;;;4936524;29;20959;-73
2023/01/31 19:26:27;;;;;;;7.13;1.97;;;8.50;99.90;;;;;;4931545;29;20208;-74
2023/01/31 19:28:55;;;;;;;3.97;1.93;;;8.50;99.90;;;;;;4944195;29;20240;-72
2023/01/31 19:31:23;;;;;;;7.70;1.90;;;8.50;99.90;;;;;;4937272;29;20246;-72
2023/01/31 19:33:52;;;;;;;5.60;2.10;;;8.50;99.90;;;;;;4939597;29;20564;-73
2023/01/31 19:36:20;;;;;;;5.97;2.07;;;8.50;99.90;;;;;;4940857;29;20200;-72
2023/01/31 19:38:48;;;;;;;8.03;2.23;;;8.60;99.90;;;;;;4941193;29;20239;-73
2023/01/31 19:41:17;;;;;;;7.80;3.40;;;8.60;99.90;;;;;;4942059;29;20212;-72
2023/01/31 19:43:46;;;;;;;6.63;2.17;;;8.60;99.90;;;;;;4942869;29;20694;-75
2023/01/31 19:46:13;;;;;;;5.23;2.47;;;8.50;99.90;;;;;;4941771;29;20201;-75
2023/01/31 19:48:39;;;;;;;5.60;2.13;;;8.40;99.90;;;;;;4951535;29;20228;-72
2023/01/31 19:51:08;;;;;;;6.97;2.70;;;8.40;99.90;;;;;;4953024;29;20208;-72
2023/01/31 19:53:35;;;;;;;7.30;2.40;;;8.50;99.90;;;;;;4953901;29;20219;-75
2023/01/31 19:56:02;;;;;;;7.07;2.70;;;8.50;99.90;;;;;;4954414;29;20230;-72
2023/01/31 19:58:30;;;;;;;5.93;2.57;;;8.40;99.90;;;;;;4953758;29;20228;-73
2023/01/31 20:00:59;;;;;;;6.43;2.70;;;8.50;99.90;;;;;;4957771;28;20208;-72
2023/01/31 20:03:26;;;;;;;5.20;2.57;;;8.40;99.90;;;;;;4957586;29;20710;-75
2023/01/31 20:05:52;;;;;;;10.60;3.17;;;8.50;99.90;;;;;;4957918;29;20216;-72
2023/01/31 20:08:22;;;;;;;9.70;2.80;;;8.40;99.90;;;;;;4957993;29;20232;-75
2023/01/31 20:10:48;;;;;;;7.53;3.23;;;8.40;99.90;;;;;;4957248;29;20231;-73
2023/01/31 20:13:15;;;;;;;11.67;2.80;;;8.40;99.90;;;;;;4957421;29;20676;-72
2023/01/31 20:15:42;;;;;;;8.30;2.97;;;8.40;99.90;;;;;;4957655;29;20259;-72
2023/01/31 20:18:10;;;;;;;8.17;3.00;;;8.30;99.90;;;;;;4957589;29;20235;-72
2023/01/31 20:20:37;;;;;;;8.87;2.93;;;8.30;99.90;;;;;;4957443;29;20215;-73
2023/01/31 20:23:04;;;;;;;8.17;2.93;;;8.30;99.90;;;;;;4957388;29;20220;-72
2023/01/31 20:25:31;;;;;;;11.13;3.27;;;8.40;99.90;;;;;;4957500;29;20587;-72
2023/01/31 20:27:57;;;;;;;6.57;3.20;;;8.40;99.90;;;;;;4957361;29;20228;-72
2023/01/31 20:30:24;;;;;;;7.20;3.10;;;8.40;99.90;;;;;;4957195;29;20235;-72
2023/01/31 20:32:51;;;;;;;5.93;3.20;;;8.40;99.90;;;;;;4957619;29;20208;-74
2023/01/31 20:35:19;;;;;;;7.13;3.57;;;8.30;99.90;;;;;;4957279;29;20212;-72
2023/01/31 20:37:46;;;;;;;11.73;3.30;;;8.30;99.90;;;;;;4956938;29;20228;-73
2023/01/31 20:40:13;;;;;;;8.63;3.10;;;8.30;99.90;;;;;;4956830;29;20218;-73
2023/01/31 20:42:39;;;;;;;6.80;3.47;;;8.30;99.90;;;;;;4956732;29;20216;-74
2023/01/31 20:45:07;;;;;;;9.07;3.70;;;8.20;99.90;;;;;;4957073;29;20211;-73
2023/01/31 20:47:34;;;;;;;6.00;2.80;;;8.30;99.90;;;;;;4957045;28;20204;-73
2023/01/31 20:50:01;;;;;;;11.13;3.10;;;8.10;99.90;;;;;;4956815;29;20242;-73
2023/01/31 20:52:29;;;;;;;6.67;3.27;;;8.00;99.90;;;;;;4956551;29;20219;-73
2023/01/31 20:54:56;;;;;;;6.13;3.03;;;8.00;99.90;;;;;;4956828;29;20208;-73
2023/01/31 20:57:23;;;;;;;13.40;3.80;;;8.00;99.90;;;;;;4956414;29;20690;-73
2023/01/31 20:59:50;;;;;;;6.67;3.30;;;7.90;99.90;;;;;;4956801;28;20533;-73
2023/01/31 21:02:17;;;;;;;5.47;2.60;;;7.90;99.90;;;;;;4956628;29;20214;-73
2023/01/31 21:04:43;;;;;;;10.63;3.87;;;7.80;99.90;;;;;;4956324;29;20208;-73
2023/01/31 21:07:10;;;;;;;9.13;3.10;;;7.70;99.90;;;;;;4956249;29;20656;-73
2023/01/31 21:09:38;;;;;;;6.57;3.20;;;7.70;99.90;;;;;;4956472;28;20590;-73
2023/01/31 21:12:06;;;;;;;12.53;3.10;;;7.60;99.90;;;;;;4956063;28;20208;-73
2023/01/31 21:14:32;;;;;;;5.20;3.10;;;7.60;99.90;;;;;;4956675;29;20216;-74
2023/01/31 21:16:59;;;;;;;8.33;3.30;;;7.60;99.90;;;;;;4956385;29;20659;-74
2023/01/31 21:19:26;;;;;;;9.43;3.17;;;7.60;99.90;;;;;;4956205;29;20737;-73
2023/01/31 21:21:53;;;;;;;7.53;3.13;;;7.60;99.90;;;;;;4956617;29;20234;-73
2023/01/31 21:24:20;;;;;;;11.50;3.97;;;7.60;99.90;;;;;;4956461;29;20238;-73
2023/01/31 21:26:48;;;;;;;11.73;3.70;;;7.60;99.90;;;;;;4956203;29;20208;-73
2023/01/31 21:29:14;;;;;;;10.10;3.53;;;7.60;99.90;;;;;;4955749;28;20228;-73
2023/01/31 21:31:41;;;;;;;17.43;4.30;;;7.60;99.90;;;;;;4955900;29;20218;-73
2023/01/31 21:34:08;;;;;;;7.47;3.57;;;7.60;99.90;;;;;;4956039;29;20215;-73
2023/01/31 21:36:35;;;;;;;6.07;3.20;;;7.50;99.90;;;;;;4956146;29;20218;-73
2023/01/31 21:39:02;;;;;;;9.20;3.30;;;7.40;99.90;;;;;;4956080;29;20236;-73
2023/01/31 21:44:14;;;;;;;9.83;3.60;;;7.40;99.90;;;;;;4955650;29;20339;-73
2023/01/31 21:46:41;;;;;;;7.53;3.60;;;7.40;99.90;;;;;;4955781;29;20219;-73
2023/01/31 21:49:08;;;;;;;8.97;4.20;;;7.40;99.90;;;;;;4955769;29;20235;-73
2023/01/31 21:51:35;;;;;;;7.10;3.50;;;7.30;99.90;;;;;;4955871;29;20568;-73
2023/01/31 21:54:01;;;;;;;11.00;3.73;;;7.30;99.90;;;;;;4955890;29;20212;-73
2023/01/31 21:56:29;;;;;;;6.80;3.33;;;7.30;99.90;;;;;;4955393;29;20207;-73
2023/01/31 21:58:57;;;;;;;12.00;4.10;;;7.30;99.90;;;;;;4955184;28;20623;-73
2023/01/31 22:01:26;;;;;;;7.27;3.60;;;7.20;99.90;;;;;;4955425;29;20218;-73
2023/01/31 22:03:54;;;;;;;8.13;4.00;;;7.20;99.90;;;;;;4955533;29;20212;-74
2023/01/31 22:06:24;;;;;;;4.80;3.07;;;7.30;99.90;;;;;;4955564;29;20208;-73
2023/01/31 22:08:52;;;;;;;12.23;2.90;;;7.20;99.90;;;;;;4955245;29;20228;-73
2023/01/31 22:11:19;;;;;;;8.50;3.57;;;7.20;99.90;;;;;;4955403;29;20236;-73
2023/01/31 22:13:47;;;;;;;9.93;3.53;;;7.20;99.90;;;;;;4955119;29;20214;-73
2023/01/31 22:16:16;;;;;;;7.70;3.40;;;7.10;99.90;;;;;;4955527;29;20234;-74
2023/01/31 22:18:45;;;;;;;10.33;4.13;;;7.10;99.90;;;;;;4955562;28;20576;-73
2023/01/31 22:21:14;;;;;;;12.20;3.97;;;7.10;99.90;;;;;;4955074;29;20692;-74
2023/01/31 22:23:44;;;;;;;9.90;3.80;;;7.10;99.90;;;;;;4954772;28;20207;-74
2023/01/31 22:26:13;;;;;;;15.43;3.67;;;7.00;99.90;;;;;;4955066;29;20208;-73
2023/01/31 22:28:40;;;;;;;8.03;3.40;;;7.00;99.90;;;;;;4954986;29;20227;-74
2023/01/31 22:31:09;;;;;;;11.93;4.00;;;6.90;99.90;;;;;;4955445;29;20238;-74
2023/01/31 22:33:37;;;;;;;8.10;3.00;;;6.90;99.90;;;;;;4955835;29;20659;-73
2023/01/31 22:36:08;;;;;;;8.27;3.80;;;7.00;99.90;;;;;;4955652;29;20212;-74
2023/01/31 22:38:35;;;;;;;9.13;3.47;;;7.00;99.90;;;;;;4954995;29;20233;-73
2023/01/31 22:41:04;;;;;;;12.40;3.60;;;7.00;99.90;;;;;;4955301;29;20238;-73
2023/01/31 22:43:31;;;;;;;13.10;3.60;;;7.10;99.90;;;;;;4955006;29;20223;-73
2023/01/31 22:46:00;;;;;;;8.13;3.50;;;7.10;99.90;;;;;;4955101;29;20219;-74
2023/01/31 22:48:27;;;;;;;12.87;3.83;;;7.10;99.90;;;;;;4954996;29;20228;-74
2023/01/31 22:50:55;;;;;;;8.97;3.90;;;7.10;99.90;;;;;;4955152;29;20661;-74
2023/01/31 22:53:23;;;;;;;7.97;3.80;;;7.20;99.90;;;;;;4954901;29;20686;-73
2023/01/31 22:55:50;;;;;;;14.47;4.30;;;7.20;99.90;;;;;;4955092;29;21027;-73
2023/01/31 22:58:17;;;;;;;13.00;4.63;;;7.20;99.90;;;;;;4954624;29;20227;-74
2023/01/31 23:00:44;;;;;;;7.67;4.33;;;7.30;99.90;;;;;;4954676;29;20224;-74
